UAL1136 MMUN-KDEN
Flight info
| Callsign | UAL1136 |
|---|---|
| Flight time | N/A |
| Altitude | 34000 |
| Route | NOSUG2A NOSUG UT27 OMVIP UT45 ALKIM DCT KEHLI A766 SBI DCT KF09E/N0460F360 DCT FUZ DCT KK36A DCT TOTOE DCT HALEN NIIXX4 |
| Aircraft | B739/M-SDE3GHIJ4RWXY/LB1 |
Departure
| Time | 2026-05-05 15:18 |
|---|---|
| Airport | Cancún International Airport (MMUN) |
Arrival
| Time | N/A |
|---|---|
| Airport | Denver International Airport (KDEN) |
| Time | Latitude | Longitude | Altitude | Speed | Heading |
|---|---|---|---|---|---|
| 2026-05-05 14:49 | 21.03671 | -86.86715 | 28 ft | 0 kts | 304° |
| 2026-05-05 15:06 | 21.03666 | -86.86707 | 24 ft | 4 kts | 304° |
| 2026-05-05 15:06 | 21.03651 | -86.86683 | 20 ft | 4 kts | 302° |
| 2026-05-05 15:06 | 21.03638 | -86.86658 | 28 ft | 4 kts | 282° |
| 2026-05-05 15:06 | 21.03640 | -86.86637 | 28 ft | 3 kts | 224° |
| 2026-05-05 15:07 | 21.03660 | -86.86621 | 28 ft | 2 kts | 213° |
| 2026-05-05 15:07 | 21.03661 | -86.86620 | 28 ft | 0 kts | 214° |
| 2026-05-05 15:11 | 21.03650 | -86.86628 | 28 ft | 4 kts | 213° |
| 2026-05-05 15:11 | 21.03611 | -86.86655 | 28 ft | 10 kts | 213° |
| 2026-05-05 15:11 | 21.03540 | -86.86705 | 28 ft | 14 kts | 213° |
| 2026-05-05 15:11 | 21.03450 | -86.86770 | 28 ft | 16 kts | 214° |
| 2026-05-05 15:12 | 21.03364 | -86.86833 | 29 ft | 14 kts | 217° |
| 2026-05-05 15:12 | 21.03363 | -86.86918 | 29 ft | 13 kts | 303° |
| 2026-05-05 15:12 | 21.03423 | -86.87014 | 29 ft | 17 kts | 304° |
| 2026-05-05 15:12 | 21.03498 | -86.87132 | 30 ft | 21 kts | 303° |
| 2026-05-05 15:13 | 21.03583 | -86.87270 | 30 ft | 23 kts | 304° |
| 2026-05-05 15:13 | 21.03670 | -86.87409 | 30 ft | 22 kts | 304° |
| 2026-05-05 15:13 | 21.03755 | -86.87544 | 30 ft | 21 kts | 304° |
| 2026-05-05 15:13 | 21.03836 | -86.87675 | 30 ft | 21 kts | 303° |
| 2026-05-05 15:14 | 21.03918 | -86.87801 | 29 ft | 20 kts | 303° |
| 2026-05-05 15:14 | 21.03993 | -86.87925 | 29 ft | 20 kts | 303° |
| 2026-05-05 15:14 | 21.04068 | -86.88044 | 29 ft | 19 kts | 303° |
| 2026-05-05 15:14 | 21.04141 | -86.88159 | 29 ft | 18 kts | 303° |
| 2026-05-05 15:15 | 21.04210 | -86.88271 | 29 ft | 18 kts | 304° |
| 2026-05-05 15:15 | 21.04279 | -86.88378 | 29 ft | 17 kts | 304° |
| 2026-05-05 15:15 | 21.04343 | -86.88482 | 30 ft | 16 kts | 304° |
| 2026-05-05 15:15 | 21.04406 | -86.88582 | 30 ft | 16 kts | 303° |
| 2026-05-05 15:16 | 21.04466 | -86.88678 | 30 ft | 15 kts | 303° |
| 2026-05-05 15:16 | 21.04524 | -86.88769 | 29 ft | 15 kts | 304° |
| 2026-05-05 15:16 | 21.04582 | -86.88862 | 29 ft | 15 kts | 304° |
| 2026-05-05 15:16 | 21.04636 | -86.88949 | 29 ft | 13 kts | 297° |
| 2026-05-05 15:17 | 21.04611 | -86.89029 | 30 ft | 12 kts | 215° |
| 2026-05-05 15:17 | 21.04542 | -86.89076 | 31 ft | 9 kts | 210° |
| 2026-05-05 15:17 | 21.04498 | -86.89047 | 30 ft | 9 kts | 121° |
| 2026-05-05 15:17 | 21.04410 | -86.88904 | 32 ft | 51 kts | 125° |
| 2026-05-05 15:18 | 21.04088 | -86.88389 | 34 ft | 113 kts | 124° |
| 2026-05-05 15:18 | 21.03555 | -86.87537 | 40 ft | 160 kts | 124° |
| 2026-05-05 15:18 | 21.02909 | -86.86515 | 474 ft | 167 kts | 122° |
| 2026-05-05 15:18 | 21.02248 | -86.85418 | 844 ft | 183 kts | 123° |
| 2026-05-05 15:19 | 21.01868 | -86.84086 | 1152 ft | 201 kts | 90° |
| 2026-05-05 15:19 | 21.02312 | -86.82623 | 1417 ft | 220 kts | 55° |
| 2026-05-05 15:19 | 21.03581 | -86.81607 | 1645 ft | 242 kts | 19° |
| 2026-05-05 15:19 | 21.05344 | -86.81444 | 1819 ft | 269 kts | 355° |
| 2026-05-05 15:20 | 21.07216 | -86.81730 | 2451 ft | 275 kts | 352° |
| 2026-05-05 15:20 | 21.09120 | -86.82008 | 3232 ft | 274 kts | 353° |
| 2026-05-05 15:20 | 21.11009 | -86.82260 | 3981 ft | 275 kts | 353° |
| 2026-05-05 15:20 | 21.12915 | -86.82517 | 4666 ft | 277 kts | 353° |
| 2026-05-05 15:21 | 21.14843 | -86.82785 | 5325 ft | 281 kts | 353° |
| 2026-05-05 15:21 | 21.16786 | -86.83058 | 6005 ft | 282 kts | 353° |
| 2026-05-05 15:21 | 21.18733 | -86.83333 | 6706 ft | 283 kts | 353° |
| 2026-05-05 15:21 | 21.20688 | -86.83609 | 7326 ft | 285 kts | 352° |
| 2026-05-05 15:22 | 21.22658 | -86.83888 | 7973 ft | 286 kts | 352° |
| 2026-05-05 15:22 | 21.24637 | -86.84169 | 8634 ft | 288 kts | 351° |
| 2026-05-05 15:22 | 21.26600 | -86.84447 | 9257 ft | 289 kts | 351° |
| 2026-05-05 15:22 | 21.28605 | -86.84732 | 9897 ft | 292 kts | 351° |
| 2026-05-05 15:23 | 21.30640 | -86.85021 | 10332 ft | 302 kts | 351° |
| 2026-05-05 15:23 | 21.32796 | -86.85328 | 10466 ft | 322 kts | 351° |
| 2026-05-05 15:23 | 21.35080 | -86.85653 | 10591 ft | 340 kts | 351° |
| 2026-05-05 15:23 | 21.37483 | -86.85994 | 10726 ft | 357 kts | 352° |
| 2026-05-05 15:24 | 21.39983 | -86.86349 | 10964 ft | 367 kts | 352° |
| 2026-05-05 15:24 | 21.42523 | -86.86709 | 11400 ft | 371 kts | 352° |
| 2026-05-05 15:24 | 21.45091 | -86.87073 | 11917 ft | 373 kts | 351° |
| 2026-05-05 15:24 | 21.47668 | -86.87438 | 12430 ft | 375 kts | 351° |
| 2026-05-05 15:25 | 21.50261 | -86.87807 | 12924 ft | 378 kts | 351° |
| 2026-05-05 15:25 | 21.52028 | -86.88058 | 13260 ft | 380 kts | 351° |
| 2026-05-05 15:25 | 21.54625 | -86.88428 | 13758 ft | 382 kts | 351° |
| 2026-05-05 15:25 | 21.57272 | -86.88805 | 14216 ft | 384 kts | 351° |
| 2026-05-05 15:26 | 21.59921 | -86.89182 | 14717 ft | 385 kts | 352° |
| 2026-05-05 15:26 | 21.62574 | -86.89560 | 15237 ft | 385 kts | 352° |
| 2026-05-05 15:26 | 21.65235 | -86.89940 | 15740 ft | 386 kts | 352° |
| 2026-05-05 15:26 | 21.67897 | -86.90320 | 16228 ft | 387 kts | 352° |
| 2026-05-05 15:27 | 21.70568 | -86.90701 | 16698 ft | 388 kts | 352° |
| 2026-05-05 15:27 | 21.73245 | -86.91084 | 17164 ft | 389 kts | 352° |
| 2026-05-05 15:27 | 21.75917 | -86.91467 | 17615 ft | 390 kts | 352° |
| 2026-05-05 15:27 | 21.78606 | -86.91852 | 18105 ft | 390 kts | 353° |
| 2026-05-05 15:28 | 21.81300 | -86.92238 | 18583 ft | 389 kts | 353° |
| 2026-05-05 15:28 | 21.83996 | -86.92623 | 18903 ft | 393 kts | 352° |
| 2026-05-05 15:28 | 21.86719 | -86.92996 | 19179 ft | 396 kts | 353° |
| 2026-05-05 15:28 | 21.89478 | -86.93278 | 19486 ft | 399 kts | 355° |
| 2026-05-05 15:29 | 21.92253 | -86.93512 | 19805 ft | 401 kts | 354° |
| 2026-05-05 15:29 | 21.94992 | -86.94115 | 20072 ft | 404 kts | 339° |
| 2026-05-05 15:29 | 21.97474 | -86.95548 | 20398 ft | 406 kts | 325° |
| 2026-05-05 15:29 | 21.99617 | -86.97551 | 20714 ft | 410 kts | 315° |
| 2026-05-05 15:30 | 22.01590 | -86.99775 | 21019 ft | 412 kts | 315° |
| 2026-05-05 15:30 | 22.03566 | -87.02023 | 21313 ft | 414 kts | 314° |
| 2026-05-05 15:30 | 22.05528 | -87.04255 | 21610 ft | 416 kts | 314° |
| 2026-05-05 15:30 | 22.07525 | -87.06520 | 21909 ft | 418 kts | 314° |
| 2026-05-05 15:31 | 22.09534 | -87.08789 | 22199 ft | 420 kts | 314° |
| 2026-05-05 15:31 | 22.11558 | -87.11067 | 22494 ft | 421 kts | 314° |
| 2026-05-05 15:31 | 22.13586 | -87.13345 | 22833 ft | 421 kts | 314° |
| 2026-05-05 15:31 | 22.15621 | -87.15629 | 23108 ft | 423 kts | 314° |
| 2026-05-05 15:32 | 22.17665 | -87.17922 | 23344 ft | 425 kts | 314° |
| 2026-05-05 15:32 | 22.19720 | -87.20228 | 23593 ft | 427 kts | 314° |
| 2026-05-05 15:32 | 22.21787 | -87.22548 | 23815 ft | 429 kts | 314° |
| 2026-05-05 15:32 | 22.23855 | -87.24869 | 24040 ft | 430 kts | 314° |
| 2026-05-05 15:33 | 22.25934 | -87.27205 | 24266 ft | 431 kts | 314° |
| 2026-05-05 15:33 | 22.28013 | -87.29542 | 24481 ft | 432 kts | 314° |
| 2026-05-05 15:33 | 22.30097 | -87.31885 | 24688 ft | 433 kts | 314° |
| 2026-05-05 15:33 | 22.32189 | -87.34238 | 24885 ft | 435 kts | 314° |
| 2026-05-05 15:34 | 22.34288 | -87.36601 | 25063 ft | 437 kts | 314° |
| 2026-05-05 15:34 | 22.36394 | -87.38973 | 25259 ft | 438 kts | 314° |
| 2026-05-05 15:34 | 22.38508 | -87.41355 | 25473 ft | 439 kts | 314° |
| 2026-05-05 15:34 | 22.40623 | -87.43739 | 25682 ft | 440 kts | 314° |
| 2026-05-05 15:35 | 22.42745 | -87.46132 | 25869 ft | 442 kts | 314° |
| 2026-05-05 15:35 | 22.44871 | -87.48531 | 26081 ft | 442 kts | 314° |
| 2026-05-05 15:35 | 22.47000 | -87.50933 | 26344 ft | 442 kts | 314° |
| 2026-05-05 15:35 | 22.49097 | -87.53303 | 26543 ft | 443 kts | 314° |
| 2026-05-05 15:36 | 22.51257 | -87.55742 | 26707 ft | 444 kts | 314° |
| 2026-05-05 15:36 | 22.53398 | -87.58163 | 26875 ft | 446 kts | 314° |
| 2026-05-05 15:36 | 22.55518 | -87.60560 | 27059 ft | 447 kts | 314° |
| 2026-05-05 15:36 | 22.57676 | -87.63003 | 27244 ft | 448 kts | 314° |
| 2026-05-05 15:37 | 22.59830 | -87.65441 | 27423 ft | 449 kts | 314° |
| 2026-05-05 15:37 | 22.61993 | -87.67890 | 27592 ft | 450 kts | 314° |
| 2026-05-05 15:37 | 22.64158 | -87.70344 | 27771 ft | 451 kts | 314° |
| 2026-05-05 15:37 | 22.66327 | -87.72803 | 27920 ft | 453 kts | 314° |
| 2026-05-05 15:38 | 22.68507 | -87.75276 | 28071 ft | 454 kts | 314° |
| 2026-05-05 15:38 | 22.70686 | -87.77749 | 28334 ft | 453 kts | 314° |
| 2026-05-05 15:38 | 22.72863 | -87.80221 | 28646 ft | 452 kts | 314° |
| 2026-05-05 15:38 | 22.75030 | -87.82682 | 28942 ft | 451 kts | 314° |
| 2026-05-05 15:39 | 22.77163 | -87.85107 | 29224 ft | 450 kts | 314° |
| 2026-05-05 15:39 | 22.79319 | -87.87559 | 29579 ft | 448 kts | 314° |
| 2026-05-05 15:39 | 22.81462 | -87.89997 | 29976 ft | 445 kts | 314° |
| 2026-05-05 15:39 | 22.83594 | -87.92425 | 30262 ft | 445 kts | 314° |
| 2026-05-05 15:40 | 22.85728 | -87.94854 | 30518 ft | 445 kts | 314° |
| 2026-05-05 15:40 | 22.87857 | -87.97280 | 30840 ft | 443 kts | 314° |
| 2026-05-05 15:40 | 22.89973 | -87.99692 | 31200 ft | 440 kts | 314° |
| 2026-05-05 15:40 | 22.92077 | -88.02092 | 31584 ft | 437 kts | 314° |
| 2026-05-05 15:41 | 22.94167 | -88.04476 | 31939 ft | 435 kts | 314° |
| 2026-05-05 15:41 | 22.96247 | -88.06851 | 32283 ft | 434 kts | 314° |
| 2026-05-05 15:41 | 22.98320 | -88.09219 | 32635 ft | 432 kts | 314° |
| 2026-05-05 15:41 | 23.00388 | -88.11582 | 32958 ft | 431 kts | 314° |
| 2026-05-05 15:42 | 23.02452 | -88.13940 | 33261 ft | 430 kts | 314° |
| 2026-05-05 15:42 | 23.04505 | -88.16289 | 33635 ft | 428 kts | 315° |
| 2026-05-05 15:42 | 23.06546 | -88.18625 | 33999 ft | 426 kts | 315° |
| 2026-05-05 15:43 | 23.10643 | -88.23316 | 34038 ft | 426 kts | 315° |
| 2026-05-05 15:43 | 23.14690 | -88.27955 | 34031 ft | 420 kts | 315° |
| 2026-05-05 15:44 | 23.18687 | -88.32541 | 34009 ft | 416 kts | 315° |
| 2026-05-05 15:44 | 23.22672 | -88.37116 | 34033 ft | 418 kts | 315° |
| 2026-05-05 15:45 | 23.26712 | -88.41758 | 34032 ft | 425 kts | 314° |
| 2026-05-05 15:45 | 23.30753 | -88.46406 | 34018 ft | 426 kts | 314° |
| 2026-05-05 15:46 | 23.34823 | -88.51093 | 34013 ft | 426 kts | 314° |
| 2026-05-05 15:46 | 23.38894 | -88.55786 | 34031 ft | 427 kts | 314° |
| 2026-05-05 15:47 | 23.42971 | -88.60489 | 34041 ft | 426 kts | 314° |
| 2026-05-05 15:47 | 23.47038 | -88.65186 | 34020 ft | 426 kts | 314° |
| 2026-05-05 15:48 | 23.51093 | -88.69873 | 34018 ft | 424 kts | 314° |
| 2026-05-05 15:48 | 23.55139 | -88.74555 | 34021 ft | 423 kts | 314° |
| 2026-05-05 15:49 | 23.59160 | -88.79212 | 34018 ft | 421 kts | 314° |
| 2026-05-05 15:49 | 23.63178 | -88.83870 | 34018 ft | 420 kts | 314° |
| 2026-05-05 15:50 | 23.67180 | -88.88513 | 34014 ft | 420 kts | 314° |
| 2026-05-05 15:50 | 23.71180 | -88.93160 | 34022 ft | 420 kts | 314° |
| 2026-05-05 15:51 | 23.75190 | -88.97822 | 34039 ft | 421 kts | 314° |
| 2026-05-05 15:51 | 23.79180 | -89.02464 | 34024 ft | 422 kts | 314° |
| 2026-05-05 15:52 | 23.83204 | -89.07152 | 34017 ft | 423 kts | 314° |
| 2026-05-05 15:52 | 23.87229 | -89.11845 | 34015 ft | 423 kts | 314° |
| 2026-05-05 15:53 | 23.91245 | -89.16532 | 34016 ft | 423 kts | 314° |
| 2026-05-05 15:53 | 23.95261 | -89.21224 | 34016 ft | 422 kts | 314° |
| 2026-05-05 15:54 | 23.99276 | -89.25919 | 34011 ft | 422 kts | 313° |
| 2026-05-05 15:54 | 24.03260 | -89.30583 | 34018 ft | 422 kts | 313° |
| 2026-05-05 15:55 | 24.07265 | -89.35275 | 34024 ft | 422 kts | 313° |
| 2026-05-05 15:55 | 24.11269 | -89.39950 | 34097 ft | 419 kts | 313° |
| 2026-05-05 15:56 | 24.15256 | -89.44576 | 34133 ft | 418 kts | 313° |